Data for 06/07/2017

Time Sea-Level Adjusted Pressure Absolute Pressure Temperature Relative Humidity Dew Point   
(mb) (inHg) (mb) (inHg) (C) (F) (%) (C) (F)
00:05 1021 30.15 850 25.1 14.9 58.8 54 5.7 42.2
00:10 1021 30.15 850 25.1 14.8 58.7 54 5.6 42.1
00:15 1021 30.15 850 25.1 14.8 58.7 54 5.7 42.2
00:20 1021 30.15 850 25.1 14.7 58.5 54 5.7 42.3
00:25 1021 30.15 850 25.1 14.7 58.4 55 5.7 42.2
00:30 1021 30.15 850 25.1 14.6 58.3 55 5.6 42.1
00:35 1021 30.15 850 25.1 14.6 58.2 55 5.7 42.2
00:40 1021 30.15 850 25.1 14.6 58.2 55 5.7 42.3
00:45 1021 30.15 850 25.1 14.5 58.1 55 5.7 42.2
00:50 1021 30.15 850 25.1 14.5 58 55 5.7 42.2
00:55 1021 30.15 850 25.1 14.4 57.8 56 5.7 42.2
01:00 1021 30.15 850 25.1 14.2 57.6 56 5.7 42.3
01:05 1021 30.15 850 25.1 14.2 57.5 56 5.7 42.2
01:10 1021 30.15 850 25.1 14.1 57.4 56 5.7 42.2
01:15 1021 30.15 850 25.1 14.1 57.4 56 5.7 42.2
01:20 1021 30.15 850 25.1 14 57.2 57 5.7 42.2
01:25 1021 30.15 850 25.1 14 57.3 57 5.6 42.1
01:30 1021 30.15 850 25.1 14.1 57.3 57 5.7 42.3
01:35 1021 30.15 850 25.1 14.1 57.4 57 5.7 42.3
01:40 1021 30.15 850 25.1 14.1 57.4 57 5.8 42.5
01:45 1021 30.15 850 25.1 14.2 57.5 57 5.9 42.6
01:50 1021 30.15 850 25.1 14.2 57.6 57 5.9 42.7
01:55 1021 30.15 850 25.1 14.2 57.5 57 6 42.7
02:00 1021 30.15 850 25.1 14.2 57.6 58 6.1 42.9
02:05 1021 30.15 850 25.1 14.2 57.5 58 6.1 43
02:10 1021 30.15 850 25.1 14 57.3 58 6.1 42.9
02:15 1021 30.15 850 25.1 14 57.2 59 6.1 43
02:20 1021 30.15 850 25.1 13.9 57 59 6.2 43.1
02:25 1021 30.15 850 25.1 13.8 56.9 60 6.2 43.1
02:30 1021 30.15 850 25.1 13.7 56.7 60 6.2 43.1
02:35 1021 30.15 850 25.1 13.7 56.7 60 6.2 43.1
02:40 1021 30.15 850 25.1 13.7 56.6 60 6.2 43.1
02:45 1021 30.15 850 25.1 13.6 56.6 60 6.1 43
02:50 1021 30.15 850 25.1 13.6 56.4 60 6.1 43
02:55 1021 30.15 850 25.1 13.5 56.4 60 6.1 43
03:00 1021 30.15 850 25.1 13.4 56.2 61 6.1 43
03:05 1021 30.15 850 25.1 13.2 55.8 62 6.1 42.9
03:10 1021 30.15 850 25.1 13.1 55.5 62 6 42.8
03:15 1021 30.15 850 25.1 13 55.5 62 6.1 42.9
03:20 1021 30.15 850 25.1 13 55.5 62 6 42.8
03:25 1021 30.15 850 25.1 13 55.4 62 6 42.9
03:30 1021 30.15 850 25.1 12.9 55.2 62 5.9 42.7
03:35 1021 30.15 850 25.1 12.9 55.1 62 5.8 42.5
03:40 1021 30.15 850 25.1 12.8 55.1 63 5.9 42.7
03:45 1021 30.15 850 25.1 12.8 55 63 5.9 42.6
03:50 1021 30.15 850 25.1 12.7 54.8 63 5.9 42.6
03:55 1021 30.15 850 25.1 12.7 54.8 63 5.8 42.5
04:00 1021 30.15 850 25.1 12.8 55 63 5.9 42.6
04:05 1021 30.15 850 25.1 12.7 54.9 63 5.9 42.7
04:10 1021 30.15 850 25.1 12.7 54.8 63 5.9 42.6
04:15 1021 30.15 850 25.1 12.6 54.8 63 5.8 42.5
04:20 1021 30.15 850 25.1 12.5 54.5 63 5.8 42.4
04:25 1021 30.15 850 25.1 12.5 54.5 64 5.8 42.5
04:30 1021 30.15 850 25.1 12.6 54.6 63 5.7 42.3
04:35 1021 30.15 850 25.1 12.7 54.8 63 5.8 42.4
04:40 1021 30.15 850 25.1 12.7 54.8 63 5.8 42.4
04:45 1021 30.15 850 25.1 12.7 54.9 62 5.8 42.4
04:50 1021 30.15 850 25.1 12.8 55.1 62 5.8 42.4
04:55 1021 30.15 850 25.1 13 55.4 61 5.8 42.4
05:00 1021 30.15 850 25.1 13.1 55.6 61 5.8 42.5
05:05 1021 30.15 850 25.1 13.2 55.8 61 5.8 42.5
05:10 1021 30.15 850 25.1 13.3 55.9 60 5.8 42.4
05:15 1021 30.15 850 25.1 13.3 55.9 60 5.8 42.5
05:20 1021 30.15 850 25.1 13.3 55.9 60 5.8 42.4
05:25 1021 30.15 850 25.1 13.3 55.9 60 5.8 42.5
05:30 1021 30.15 850 25.1 13.1 55.6 61 5.9 42.7
05:35 1021 30.15 850 25.1 13.1 55.5 62 6 42.7
05:40 1021 30.15 850 25.1 13 55.4 62 5.9 42.6
05:45 1021 30.15 850 25.1 13.2 55.7 61 5.9 42.6
05:50 1021 30.15 850 25.1 13.4 56 61 6 42.9
05:55 1021 30.15 850 25.1 13.5 56.3 60 6 42.8
06:00 1021 30.15 850 25.1 13.7 56.6 60 6 42.9
06:05 1021 30.15 850 25.1 13.8 56.8 60 6.1 43.1
06:10 1021 30.15 850 25.1 14 57.2 59 6.2 43.1
06:15 1021 30.15 850 25.1 14.2 57.6 58 6.3 43.3
06:20 1021 30.15 850 25.1 14.4 57.9 58 6.4 43.6
06:25 1021 30.15 850 25.1 14.5 58.1 58 6.5 43.7
06:30 1021 30.15 850 25.1 14.6 58.3 58 6.6 43.9
06:35 1021 30.15 850 25.1 14.8 58.6 58 6.7 44
06:40 1021 30.15 850 25.1 14.8 58.7 58 6.7 44.1
06:45 1021 30.15 850 25.1 14.8 58.6 58 6.8 44.2
06:50 1021 30.15 850 25.1 14.8 58.7 58 6.8 44.2
06:55 1020 30.12 850 25.1 15 59 58 6.8 44.2
07:00 1020 30.12 850 25.1 15.3 59.6 56 6.8 44.2
07:05 1020 30.12 850 25.1 15.7 60.3 55 6.8 44.3
07:10 1020 30.12 850 25.1 15.8 60.5 55 6.9 44.3
07:15 1020 30.12 849 25.07 16 60.8 54 6.7 44.1
07:20 1020 30.12 849 25.07 16.3 61.3 54 6.9 44.4
07:25 1020 30.12 850 25.1 16.5 61.6 53 7.1 44.7
07:30 1020 30.12 850 25.1 16.5 61.8 53 7.1 44.7
07:35 1020 30.12 849 25.07 16.8 62.2 53 7.2 45
07:40 1020 30.12 850 25.1 16.9 62.4 52 7.2 44.9
07:45 1020 30.12 850 25.1 17 62.5 52 7 44.7
07:50 1020 30.12 850 25.1 17.2 63 51 7.2 45
07:55 1020 30.12 850 25.1 17.5 63.5 50 7.2 44.9
08:00 1020 30.12 850 25.1 17.6 63.7 51 7.5 45.5
08:05 1020 30.12 849 25.07 17.1 62.8 52 7.2 45
08:10 1020 30.12 849 25.07 17.3 63.1 52 7.5 45.4
08:15 1020 30.12 849 25.07 17.3 63.2 52 7.4 45.4
08:20 1020 30.12 849 25.07 17.8 64.1 51 7.6 45.7
08:25 1020 30.12 850 25.1 17.8 64.1 51 7.8 46
08:30 1020 30.12 850 25.1 17.7 63.8 50 7.1 44.8
08:35 1020 30.12 850 25.1 18.6 65.4 48 7.6 45.6
08:40 1020 30.12 849 25.07 19 66.1 47 7.5 45.5
08:45 1020 30.12 849 25.07 18.8 65.8 49 8.1 46.5
08:50 1020 30.12 849 25.07 18.2 64.8 50 7.8 46.1
08:55 1020 30.12 849 25.07 18.5 65.2 47 7.1 44.9
09:00 1020 30.12 849 25.07 18.2 64.8 51 7.9 46.3
09:05 1020 30.12 849 25.07 18.1 64.5 52 8.1 46.5
09:10 1020 30.12 849 25.07 18.5 65.3 48 7.4 45.3
09:15 1020 30.12 849 25.07 19.5 67.1 46 7.7 45.9
09:20 1020 30.12 849 25.07 19.4 66.9 46 7.5 45.5
09:25 1020 30.12 849 25.07 20 67.9 44 7.3 45.2
09:30 1020 30.12 849 25.07 20.8 69.4 43 7.9 46.2
09:35 1020 30.12 849 25.07 20.2 68.3 43 7.5 45.5
09:40 1020 30.12 849 25.07 20.5 68.9 42 7.5 45.4
09:45 1020 30.12 849 25.07 21.3 70.3 41 7.7 45.9
09:50 1020 30.12 849 25.07 21.9 71.4 39 7.5 45.5
09:55 1020 30.12 849 25.07 21.6 71 41 8 46.4
10:00 1020 30.12 849 25.07 21.4 70.5 41 7.7 45.8
10:05 1020 30.12 849 25.07 22.3 72.1 37 6.9 44.4
10:10 1020 30.12 849 25.07 22.3 72.2 39 8 46.5
10:15 1020 30.12 849 25.07 22.9 73.2 36 7.3 45.1
10:20 1019 30.09 849 25.07 23.1 73.5 35 7.1 44.8
10:25 1019 30.09 849 25.07 22.9 73.2 38 8 46.3
10:30 1019 30.09 849 25.07 22.5 72.6 37 7.4 45.3
10:35 1019 30.09 849 25.07 23 73.5 38 8.3 46.9
10:40 1019 30.09 849 25.07 23.1 73.5 35 7 44.7
10:45 1019 30.09 848 25.04 24 75.2 33 7.1 44.8
10:50 1019 30.09 848 25.04 24.2 75.5 35 8.1 46.6
10:55 1019 30.09 848 25.04 23.3 73.9 36 7.8 46
11:00 1019 30.09 848 25.04 23.3 73.9 39 8.6 47.4
11:05 1019 30.09 848 25.04 23.5 74.2 37 8 46.4
11:10 1019 30.09 848 25.04 24.2 75.5 34 7.5 45.5
11:15 1019 30.09 848 25.04 25 76.9 33 7.8 46
11:20 1019 30.09 848 25.04 24.9 76.9 35 8.6 47.4
11:25 1019 30.09 848 25.04 24.8 76.7 33 7.7 45.8
11:30 1019 30.09 848 25.04 24.9 76.8 33 7.9 46.1
11:35 1019 30.09 848 25.04 24.1 75.5 36 8.4 47.1
11:40 1019 30.09 848 25.04 24.1 75.4 36 8.3 47
11:45 1019 30.09 848 25.04 25.2 77.3 34 8.4 47.2
11:50 1019 30.09 848 25.04 25 77 34 8.4 47.1
11:55 1019 30.09 848 25.04 25.1 77.3 34 8.4 47.2
12:00 1019 30.09 848 25.04 25.1 77.1 35 8.7 47.7
12:05 1019 30.09 848 25.04 25.3 77.6 33 8.1 46.6
12:10 1019 30.09 848 25.04 26.4 79.4 31 8.2 46.8
12:15 1019 30.09 848 25.04 27 80.6 31 8.7 47.7
12:20 1018 30.06 848 25.04 26.6 79.8 33 9.2 48.5
12:25 1018 30.06 848 25.04 26.2 79.1 34 9.2 48.5
12:30 1018 30.06 848 25.04 27.2 80.9 30 8.3 47
12:35 1018 30.06 847 25.01 26.9 80.5 32 8.9 48.1
12:40 1018 30.06 847 25.01 26.1 79 33 8.8 47.8
12:45 1018 30.06 847 25.01 26.5 79.7 32 8.6 47.5
12:50 1018 30.06 847 25.01 26.6 79.8 31 8.3 47
12:55 1018 30.06 847 25.01 26.5 79.7 31 8.3 47
13:00 1018 30.06 847 25.01 27.1 80.7 30 8.5 47.3
13:05 1018 30.06 847 25.01 26.7 80.1 30 8.2 46.8
13:10 1018 30.06 847 25.01 26.7 80.1 31 8.4 47.2
13:15 1018 30.06 847 25.01 27.1 80.8 30 8.2 46.7
13:20 1018 30.06 847 25.01 27 80.7 31 8.6 47.4
13:25 1018 30.06 847 25.01 26.8 80.3 30 8 46.5
13:30 1018 30.06 847 25.01 26.3 79.3 31 8.1 46.6
13:35 1017 30.03 847 25.01 26.7 80 30 8 46.4
13:40 1017 30.03 847 25.01 26.8 80.3 30 7.9 46.1
13:45 1017 30.03 847 25.01 27 80.6 30 8 46.5
13:50 1017 30.03 847 25.01 26.9 80.4 30 7.9 46.3
13:55 1017 30.03 846 24.98 27.1 80.9 29 7.9 46.2
14:00 1017 30.03 846 24.98 27.3 81.2 29 8.1 46.6
14:05 1017 30.03 846 24.98 27.1 80.8 31 8.7 47.7
14:10 1017 30.03 846 24.98 27.2 80.9 30 8.5 47.4
14:15 1017 30.03 846 24.98 27.2 81 30 8.5 47.3
14:20 1017 30.03 846 24.98 27.5 81.5 31 9 48.2
14:25 1017 30.03 846 24.98 26.7 80 30 8.1 46.6
14:30 1017 30.03 846 24.98 26.4 79.5 32 8.5 47.4
14:35 1017 30.03 846 24.98 26.5 79.8 31 8.4 47.2
14:40 1017 30.03 846 24.98 27 80.5 30 8.4 47.1
14:45 1017 30.03 846 24.98 26.8 80.3 32 9.1 48.5
14:50 1017 30.03 846 24.98 26 78.8 33 8.6 47.6
14:55 1017 30.03 846 24.98 26.1 78.9 32 8.1 46.7
15:00 1017 30.03 846 24.98 26.4 79.5 32 8.7 47.7
15:05 1017 30.03 846 24.98 26.7 80 32 8.7 47.6
15:10 1017 30.03 846 24.98 26.4 79.6 31 8.4 47.2
15:15 1017 30.03 846 24.98 26.1 79 32 8.5 47.3
15:20 1017 30.03 846 24.98 26.2 79.2 32 8.6 47.5
15:25 1017 30.03 846 24.98 26.1 78.9 32 8.5 47.4
15:30 1017 30.03 846 24.98 25.5 77.9 34 8.6 47.5
15:35 1017 30.03 846 24.98 25.3 77.5 34 8.3 47
15:40 1017 30.03 846 24.98 25.2 77.3 25 4.2 39.5
15:45 1017 30.03 846 24.98 25 77 26 4.2 39.6
15:50 1017 30.03 846 24.98 24.4 76 25 3.5 38.4
15:55 1017 30.03 846 24.98 24.6 76.3 25 3.7 38.6
16:00 1017 30.03 846 24.98 24.6 76.2 26 4.1 39.4
16:05 1017 30.03 846 24.98 24.6 76.3 25 3.5 38.2
16:10 1017 30.03 846 24.98 24.6 76.4 25 3.7 38.7
16:15 1017 30.03 846 24.98 24.1 75.3 30 5.5 41.8
16:20 1017 30.03 846 24.98 23.2 73.8 30 4.9 40.9
16:25 1017 30.03 846 24.98 22.9 73.2 32 5.3 41.6
16:30 1017 30.03 846 24.98 22.6 72.7 31 4.7 40.5
16:35 1017 30.03 846 24.98 22.9 73.2 30 4.4 39.9
16:40 1017 30.03 846 24.98 23.2 73.7 30 4.7 40.5
16:45 1017 30.03 846 24.98 23.2 73.8 29 4.5 40.2
16:50 1017 30.03 847 25.01 23.1 73.6 30 4.8 40.6
16:55 1017 30.03 847 25.01 23 73.4 30 4.8 40.7
17:00 1017 30.03 847 25.01 23 73.3 31 5 41.1
17:05 1017 30.03 847 25.01 22.8 73 32 5.2 41.4
17:10 1018 30.06 847 25.01 22.5 72.6 32 5.3 41.6
17:15 1018 30.06 847 25.01 22.5 72.4 33 5.6 42.2
17:20 1018 30.06 847 25.01 23.6 74.5 23 1.6 34.9
17:25 1017 30.03 846 24.98 24.5 76 26 3.7 38.6
17:30 1017 30.03 846 24.98 23.3 74 29 4.5 40
17:35 1017 30.03 846 24.98 22.6 72.7 29 3.8 38.8
17:40 1017 30.03 846 24.98 22.6 72.6 27 3.1 37.5
17:45 1017 30.03 846 24.98 22.9 73.3 25 2.3 36.1
17:50 1017 30.03 846 24.98 23.3 73.9 27 3.3 38
17:55 1017 30.03 846 24.98 23.1 73.6 28 3.9 39
18:00 1017 30.03 846 24.98 23 73.4 27 3.2 37.7
18:05 1017 30.03 846 24.98 23 73.3 28 3.8 38.8
18:10 1017 30.03 846 24.98 22.7 72.9 29 3.8 38.9
18:15 1017 30.03 846 24.98 22.6 72.6 29 3.9 39.1
18:20 1017 30.03 846 24.98 21.9 71.5 35 6 42.8
18:25 1017 30.03 846 24.98 21.6 70.9 35 5.6 42
18:30 1017 30.03 846 24.98 21.4 70.4 39 7 44.5
18:35 1017 30.03 846 24.98 20.8 69.4 41 7.3 45.2
18:40 1017 30.03 846 24.98 20.5 68.8 42 7.3 45.2
18:45 1017 30.03 846 24.98 20.3 68.5 43 7.3 45.2
18:50 1017 30.03 846 24.98 20.6 69 39 6.5 43.6
18:55 1017 30.03 846 24.98 20.5 69 39 6.2 43.2
19:00 1017 30.03 846 24.98 20.7 69.3 37 5.5 41.9
19:05 1017 30.03 846 24.98 21.1 70 34 4.8 40.6
19:10 1017 30.03 846 24.98 21.3 70.4 34 5.2 41.3
19:15 1017 30.03 847 25.01 21.3 70.3 35 5.2 41.4
19:20 1017 30.03 847 25.01 21.2 70.1 36 5.5 41.9
19:25 1017 30.03 847 25.01 21 69.8 36 5.7 42.3
19:30 1017 30.03 847 25.01 20.9 69.6 35 5.2 41.4
19:35 1017 30.03 847 25.01 21 69.9 35 5.3 41.5
19:40 1017 30.03 847 25.01 21 69.8 35 5 41
19:45 1017 30.03 847 25.01 21.1 70 34 4.8 40.7
19:50 1017 30.03 847 25.01 21.1 70 33 4.6 40.3
19:55 1017 30.03 847 25.01 21.1 70 34 4.7 40.4
20:00 1017 30.03 847 25.01 21.1 70 34 4.6 40.3
20:05 1017 30.03 847 25.01 21.2 70.2 33 4.4 40
20:10 1018 30.06 847 25.01 21.2 70.2 34 4.8 40.7
20:15 1018 30.06 847 25.01 21 69.7 35 5.2 41.4
20:20 1018 30.06 847 25.01 20.8 69.4 36 5.4 41.8
20:25 1018 30.06 847 25.01 20.6 69 38 5.8 42.4
20:30 1018 30.06 847 25.01 20.6 69 36 5 41.1
20:35 1018 30.06 847 25.01 20.7 69.3 35 5.1 41.1
20:40 1018 30.06 847 25.01 20.5 68.8 37 5.4 41.7
20:45 1018 30.06 847 25.01 20.4 68.6 37 5.5 42
20:50 1018 30.06 847 25.01 20.2 68.3 39 5.9 42.6
20:55 1018 30.06 847 25.01 20 68 40 6.1 43
21:00 1018 30.06 847 25.01 20.2 68.3 39 5.8 42.5
21:05 1018 30.06 848 25.04 20.4 68.7 38 5.7 42.2
21:10 1018 30.06 848 25.04 20.6 69.1 38 5.9 42.6
21:15 1019 30.09 848 25.04 20.6 69.1 38 5.8 42.5
21:20 1019 30.09 848 25.04 20.6 69 37 5.5 42
21:25 1019 30.09 848 25.04 20.7 69.2 37 5.7 42.3
21:30 1019 30.09 848 25.04 20.6 69 37 5.7 42.3
21:35 1019 30.09 848 25.04 20.6 69 38 6.1 42.9
21:40 1019 30.09 848 25.04 20.5 68.8 39 6.2 43.1
21:45 1019 30.09 848 25.04 20.6 69 37 5.5 41.9
21:50 1019 30.09 848 25.04 20.8 69.5 37 5.9 42.7
21:55 1019 30.09 848 25.04 20.6 69 40 6.7 44.1
22:00 1019 30.09 848 25.04 20.2 68.3 41 6.7 44
22:05 1019 30.09 848 25.04 20.1 68.1 40 6.3 43.3
22:10 1019 30.09 848 25.04 20.1 68.1 40 6.3 43.3
22:15 1019 30.09 848 25.04 20.1 68.1 42 6.8 44.2
22:20 1019 30.09 848 25.04 19.9 67.7 43 7.2 45
22:25 1019 30.09 848 25.04 19.6 67.3 47 8 46.4
22:30 1019 30.09 848 25.04 19.2 66.6 48 8.1 46.7
22:35 1019 30.09 848 25.04 19 66.1 48 7.8 46.1
22:40 1019 30.09 849 25.07 19 66.1 49 8.2 46.8
22:45 1020 30.12 849 25.07 18.6 65.4 49 7.8 46.1
22:50 1020 30.12 849 25.07 18.6 65.5 49 7.9 46.2
22:55 1020 30.12 849 25.07 18.8 65.8 45 6.9 44.3
23:00 1020 30.12 849 25.07 19.3 66.8 47 7.9 46.2
23:05 1020 30.12 849 25.07 19.1 66.5 50 8.5 47.4
23:10 1020 30.12 849 25.07 18.9 66 50 8.3 47
23:15 1020 30.12 849 25.07 18.8 65.8 51 8.6 47.6
23:20 1019 30.09 849 25.07 18.7 65.6 52 8.8 47.8
23:25 1019 30.09 849 25.07 18.4 65.1 54 8.9 48
23:30 1019 30.09 848 25.04 18.2 64.8 54 8.7 47.7
23:35 1019 30.09 848 25.04 18.1 64.7 55 9 48.3
23:40 1019 30.09 848 25.04 17.9 64.2 56 9.2 48.5
23:45 1019 30.09 849 25.07 17.9 64.3 57 9.5 49.1
23:50 1019 30.09 848 25.04 17.6 63.7 60 9.8 49.6
23:55 1018 30.06 848 25.04 17.5 63.6 60 9.7 49.4
24:00 1018 30.06 847 25.01 17.3 63.1 62 10 50.1